sensor_id;sensor_type;location;lat;lon;timestamp;P1;durP1;ratioP1;P2;durP2;ratioP2
31734;SDS011;18313;48.518;9.124;2022-09-01T00:02:29;15.98;;;11.75;;
31734;SDS011;18313;48.518;9.124;2022-09-01T00:04:56;15.00;;;11.45;;
31734;SDS011;18313;48.518;9.124;2022-09-01T00:07:25;17.17;;;12.15;;
31734;SDS011;18313;48.518;9.124;2022-09-01T00:09:56;15.68;;;12.85;;
31734;SDS011;18313;48.518;9.124;2022-09-01T00:12:24;14.80;;;12.48;;
31734;SDS011;18313;48.518;9.124;2022-09-01T00:14:51;18.42;;;13.35;;
31734;SDS011;18313;48.518;9.124;2022-09-01T00:17:19;21.02;;;13.85;;
31734;SDS011;18313;48.518;9.124;2022-09-01T00:19:46;17.17;;;13.23;;
31734;SDS011;18313;48.518;9.124;2022-09-01T00:22:13;17.48;;;12.90;;
31734;SDS011;18313;48.518;9.124;2022-09-01T00:24:40;16.73;;;12.70;;
31734;SDS011;18313;48.518;9.124;2022-09-01T00:27:10;13.98;;;11.95;;
31734;SDS011;18313;48.518;9.124;2022-09-01T00:29:38;15.63;;;12.88;;
31734;SDS011;18313;48.518;9.124;2022-09-01T00:32:09;16.10;;;13.20;;
31734;SDS011;18313;48.518;9.124;2022-09-01T00:34:37;19.48;;;14.30;;
31734;SDS011;18313;48.518;9.124;2022-09-01T00:37:04;18.80;;;14.27;;
31734;SDS011;18313;48.518;9.124;2022-09-01T00:39:31;17.77;;;13.70;;
31734;SDS011;18313;48.518;9.124;2022-09-01T00:41:59;18.13;;;14.40;;
31734;SDS011;18313;48.518;9.124;2022-09-01T00:44:27;17.83;;;13.57;;
31734;SDS011;18313;48.518;9.124;2022-09-01T00:46:56;20.05;;;14.98;;
31734;SDS011;18313;48.518;9.124;2022-09-01T00:49:27;16.42;;;13.18;;
31734;SDS011;18313;48.518;9.124;2022-09-01T00:52:05;15.80;;;12.65;;
31734;SDS011;18313;48.518;9.124;2022-09-01T00:54:41;19.02;;;14.75;;
31734;SDS011;18313;48.518;9.124;2022-09-01T00:57:10;16.55;;;13.38;;
31734;SDS011;18313;48.518;9.124;2022-09-01T00:59:49;18.42;;;14.15;;
31734;SDS011;18313;48.518;9.124;2022-09-01T01:02:25;22.35;;;15.43;;
31734;SDS011;18313;48.518;9.124;2022-09-01T01:04:53;17.95;;;14.25;;
31734;SDS011;18313;48.518;9.124;2022-09-01T01:07:21;18.60;;;14.60;;
31734;SDS011;18313;48.518;9.124;2022-09-01T01:09:49;21.85;;;15.95;;
31734;SDS011;18313;48.518;9.124;2022-09-01T01:12:17;21.13;;;15.75;;
31734;SDS011;18313;48.518;9.124;2022-09-01T01:14:46;18.98;;;15.25;;
31734;SDS011;18313;48.518;9.124;2022-09-01T01:17:18;21.20;;;15.70;;
31734;SDS011;18313;48.518;9.124;2022-09-01T01:19:50;19.33;;;14.85;;
31734;SDS011;18313;48.518;9.124;2022-09-01T01:22:53;17.27;;;14.85;;
31734;SDS011;18313;48.518;9.124;2022-09-01T01:25:29;19.90;;;15.48;;
31734;SDS011;18313;48.518;9.124;2022-09-01T01:28:16;20.70;;;15.63;;
31734;SDS011;18313;48.518;9.124;2022-09-01T01:30:58;19.52;;;14.98;;
31734;SDS011;18313;48.518;9.124;2022-09-01T01:33:30;18.55;;;14.95;;
31734;SDS011;18313;48.518;9.124;2022-09-01T01:36:16;17.30;;;14.00;;
31734;SDS011;18313;48.518;9.124;2022-09-01T01:38:59;18.20;;;15.18;;
31734;SDS011;18313;48.518;9.124;2022-09-01T01:41:29;20.75;;;16.15;;
31734;SDS011;18313;48.518;9.124;2022-09-01T01:43:59;19.80;;;16.75;;
31734;SDS011;18313;48.518;9.124;2022-09-01T01:46:31;19.20;;;16.13;;
31734;SDS011;18313;48.518;9.124;2022-09-01T01:49:00;19.73;;;15.05;;
31734;SDS011;18313;48.518;9.124;2022-09-01T01:51:29;20.35;;;15.57;;
31734;SDS011;18313;48.518;9.124;2022-09-01T01:53:58;20.52;;;17.23;;
31734;SDS011;18313;48.518;9.124;2022-09-01T01:56:31;21.67;;;16.73;;
31734;SDS011;18313;48.518;9.124;2022-09-01T01:59:01;24.67;;;17.35;;
31734;SDS011;18313;48.518;9.124;2022-09-01T02:01:31;25.77;;;18.77;;
31734;SDS011;18313;48.518;9.124;2022-09-01T02:03:59;20.85;;;16.85;;
31734;SDS011;18313;48.518;9.124;2022-09-01T02:06:31;21.30;;;18.00;;
31734;SDS011;18313;48.518;9.124;2022-09-01T02:09:00;22.25;;;17.33;;
31734;SDS011;18313;48.518;9.124;2022-09-01T02:11:30;22.88;;;18.02;;
31734;SDS011;18313;48.518;9.124;2022-09-01T02:14:04;15.75;;;12.38;;
31734;SDS011;18313;48.518;9.124;2022-09-01T02:16:34;12.23;;;10.93;;
31734;SDS011;18313;48.518;9.124;2022-09-01T02:19:02;11.73;;;10.52;;
31734;SDS011;18313;48.518;9.124;2022-09-01T02:21:34;10.38;;;9.30;;
31734;SDS011;18313;48.518;9.124;2022-09-01T02:24:02;15.25;;;12.23;;
31734;SDS011;18313;48.518;9.124;2022-09-01T02:26:35;13.25;;;11.80;;
31734;SDS011;18313;48.518;9.124;2022-09-01T02:29:09;13.70;;;12.23;;
31734;SDS011;18313;48.518;9.124;2022-09-01T02:31:44;14.15;;;11.18;;
31734;SDS011;18313;48.518;9.124;2022-09-01T02:34:12;12.13;;;10.82;;
31734;SDS011;18313;48.518;9.124;2022-09-01T02:36:41;13.25;;;11.85;;
31734;SDS011;18313;48.518;9.124;2022-09-01T02:39:23;16.60;;;14.23;;
31734;SDS011;18313;48.518;9.124;2022-09-01T02:41:55;22.05;;;15.60;;
31734;SDS011;18313;48.518;9.124;2022-09-01T02:44:22;16.45;;;14.60;;
31734;SDS011;18313;48.518;9.124;2022-09-01T02:46:49;19.85;;;15.80;;
31734;SDS011;18313;48.518;9.124;2022-09-01T02:49:17;17.85;;;15.35;;
31734;SDS011;18313;48.518;9.124;2022-09-01T02:51:50;20.70;;;16.50;;
31734;SDS011;18313;48.518;9.124;2022-09-01T02:54:23;21.02;;;17.33;;
31734;SDS011;18313;48.518;9.124;2022-09-01T02:56:51;22.52;;;17.52;;
31734;SDS011;18313;48.518;9.124;2022-09-01T02:59:20;22.30;;;18.10;;
31734;SDS011;18313;48.518;9.124;2022-09-01T03:01:49;19.45;;;16.23;;
31734;SDS011;18313;48.518;9.124;2022-09-01T03:04:17;19.45;;;16.45;;
31734;SDS011;18313;48.518;9.124;2022-09-01T03:06:45;17.48;;;15.15;;
31734;SDS011;18313;48.518;9.124;2022-09-01T03:09:14;19.92;;;15.23;;
31734;SDS011;18313;48.518;9.124;2022-09-01T03:11:44;20.35;;;16.02;;
31734;SDS011;18313;48.518;9.124;2022-09-01T03:14:13;20.80;;;15.50;;
31734;SDS011;18313;48.518;9.124;2022-09-01T03:16:41;23.00;;;15.82;;
31734;SDS011;18313;48.518;9.124;2022-09-01T03:19:09;19.55;;;16.08;;
31734;SDS011;18313;48.518;9.124;2022-09-01T03:21:38;27.25;;;18.20;;
31734;SDS011;18313;48.518;9.124;2022-09-01T03:24:07;24.30;;;17.73;;
31734;SDS011;18313;48.518;9.124;2022-09-01T03:26:41;21.75;;;16.67;;
31734;SDS011;18313;48.518;9.124;2022-09-01T03:29:09;20.85;;;16.52;;
31734;SDS011;18313;48.518;9.124;2022-09-01T03:31:37;19.75;;;16.30;;
31734;SDS011;18313;48.518;9.124;2022-09-01T03:34:04;19.95;;;16.27;;
31734;SDS011;18313;48.518;9.124;2022-09-01T03:36:32;28.67;;;15.30;;
31734;SDS011;18313;48.518;9.124;2022-09-01T03:38:59;21.73;;;14.85;;
31734;SDS011;18313;48.518;9.124;2022-09-01T03:41:28;18.48;;;14.20;;
31734;SDS011;18313;48.518;9.124;2022-09-01T03:43:56;14.82;;;13.20;;
31734;SDS011;18313;48.518;9.124;2022-09-01T03:46:25;16.45;;;12.90;;
31734;SDS011;18313;48.518;9.124;2022-09-01T03:49:03;18.23;;;13.15;;
31734;SDS011;18313;48.518;9.124;2022-09-01T03:51:33;16.98;;;13.07;;
31734;SDS011;18313;48.518;9.124;2022-09-01T03:54:00;16.30;;;12.90;;
31734;SDS011;18313;48.518;9.124;2022-09-01T03:56:27;13.43;;;12.00;;
31734;SDS011;18313;48.518;9.124;2022-09-01T03:58:55;18.58;;;14.63;;
31734;SDS011;18313;48.518;9.124;2022-09-01T04:01:25;17.67;;;13.65;;
31734;SDS011;18313;48.518;9.124;2022-09-01T04:03:55;17.85;;;14.43;;
31734;SDS011;18313;48.518;9.124;2022-09-01T04:06:23;17.75;;;13.43;;
31734;SDS011;18313;48.518;9.124;2022-09-01T04:08:50;17.83;;;14.13;;
31734;SDS011;18313;48.518;9.124;2022-09-01T04:11:28;18.20;;;14.35;;
31734;SDS011;18313;48.518;9.124;2022-09-01T04:13:58;17.13;;;13.80;;
31734;SDS011;18313;48.518;9.124;2022-09-01T04:16:27;16.15;;;13.50;;
31734;SDS011;18313;48.518;9.124;2022-09-01T04:19:16;15.15;;;13.45;;
31734;SDS011;18313;48.518;9.124;2022-09-01T04:21:47;18.02;;;14.25;;
31734;SDS011;18313;48.518;9.124;2022-09-01T04:24:19;18.65;;;13.85;;
31734;SDS011;18313;48.518;9.124;2022-09-01T04:26:51;16.85;;;13.65;;
31734;SDS011;18313;48.518;9.124;2022-09-01T04:29:19;18.15;;;14.07;;
31734;SDS011;18313;48.518;9.124;2022-09-01T04:32:05;16.48;;;13.40;;
31734;SDS011;18313;48.518;9.124;2022-09-01T04:34:35;15.43;;;12.63;;
31734;SDS011;18313;48.518;9.124;2022-09-01T04:37:22;15.15;;;11.90;;
31734;SDS011;18313;48.518;9.124;2022-09-01T04:39:50;15.60;;;12.20;;
31734;SDS011;18313;48.518;9.124;2022-09-01T04:42:23;19.08;;;13.95;;
31734;SDS011;18313;48.518;9.124;2022-09-01T04:44:52;16.48;;;13.43;;
31734;SDS011;18313;48.518;9.124;2022-09-01T04:47:22;16.38;;;14.43;;
31734;SDS011;18313;48.518;9.124;2022-09-01T04:50:02;18.45;;;13.98;;
31734;SDS011;18313;48.518;9.124;2022-09-01T04:52:38;20.30;;;15.35;;
31734;SDS011;18313;48.518;9.124;2022-09-01T04:55:08;21.35;;;16.50;;
31734;SDS011;18313;48.518;9.124;2022-09-01T04:57:46;18.38;;;14.90;;
31734;SDS011;18313;48.518;9.124;2022-09-01T05:00:16;16.20;;;13.65;;
31734;SDS011;18313;48.518;9.124;2022-09-01T05:02:48;18.05;;;14.15;;
31734;SDS011;18313;48.518;9.124;2022-09-01T05:05:20;20.65;;;14.27;;
31734;SDS011;18313;48.518;9.124;2022-09-01T05:07:48;18.38;;;15.07;;
31734;SDS011;18313;48.518;9.124;2022-09-01T05:10:19;17.98;;;14.00;;
31734;SDS011;18313;48.518;9.124;2022-09-01T05:12:47;16.50;;;13.43;;
31734;SDS011;18313;48.518;9.124;2022-09-01T05:15:15;16.17;;;12.18;;
31734;SDS011;18313;48.518;9.124;2022-09-01T05:17:42;15.18;;;13.00;;
31734;SDS011;18313;48.518;9.124;2022-09-01T05:20:09;15.45;;;11.85;;
31734;SDS011;18313;48.518;9.124;2022-09-01T05:22:37;14.38;;;10.95;;
31734;SDS011;18313;48.518;9.124;2022-09-01T05:25:07;17.38;;;12.57;;
31734;SDS011;18313;48.518;9.124;2022-09-01T05:27:40;18.02;;;12.55;;
31734;SDS011;18313;48.518;9.124;2022-09-01T05:30:15;16.00;;;11.82;;
31734;SDS011;18313;48.518;9.124;2022-09-01T05:32:43;17.75;;;13.13;;
31734;SDS011;18313;48.518;9.124;2022-09-01T05:35:14;19.80;;;14.27;;
31734;SDS011;18313;48.518;9.124;2022-09-01T05:37:41;16.85;;;13.57;;
31734;SDS011;18313;48.518;9.124;2022-09-01T05:40:09;15.77;;;11.80;;
31734;SDS011;18313;48.518;9.124;2022-09-01T05:42:42;16.27;;;12.05;;
31734;SDS011;18313;48.518;9.124;2022-09-01T05:45:10;15.50;;;10.80;;
31734;SDS011;18313;48.518;9.124;2022-09-01T05:47:37;10.07;;;8.55;;
31734;SDS011;18313;48.518;9.124;2022-09-01T05:50:06;9.70;;;8.52;;
31734;SDS011;18313;48.518;9.124;2022-09-01T05:52:40;10.93;;;9.13;;
31734;SDS011;18313;48.518;9.124;2022-09-01T05:55:10;10.68;;;9.02;;
31734;SDS011;18313;48.518;9.124;2022-09-01T05:57:36;12.73;;;8.70;;
31734;SDS011;18313;48.518;9.124;2022-09-01T06:00:06;13.52;;;8.13;;
31734;SDS011;18313;48.518;9.124;2022-09-01T07:27:32;22.27;;;18.00;;
31734;SDS011;18313;48.518;9.124;2022-09-01T07:30:07;22.02;;;16.70;;
31734;SDS011;18313;48.518;9.124;2022-09-01T07:32:35;23.67;;;18.02;;
31734;SDS011;18313;48.518;9.124;2022-09-01T07:35:15;21.45;;;17.85;;
31734;SDS011;18313;48.518;9.124;2022-09-01T07:37:46;21.23;;;17.05;;
31734;SDS011;18313;48.518;9.124;2022-09-01T07:40:35;20.60;;;16.85;;
31734;SDS011;18313;48.518;9.124;2022-09-01T07:43:26;20.58;;;16.42;;
31734;SDS011;18313;48.518;9.124;2022-09-01T07:45:58;18.08;;;15.05;;
31734;SDS011;18313;48.518;9.124;2022-09-01T07:48:53;18.25;;;15.32;;
31734;SDS011;18313;48.518;9.124;2022-09-01T07:51:41;19.00;;;14.77;;
31734;SDS011;18313;48.518;9.124;2022-09-01T07:54:09;18.75;;;15.18;;
31734;SDS011;18313;48.518;9.124;2022-09-01T07:56:39;19.50;;;14.60;;
31734;SDS011;18313;48.518;9.124;2022-09-01T07:59:06;18.65;;;14.98;;
31734;SDS011;18313;48.518;9.124;2022-09-01T08:01:40;20.48;;;13.48;;
31734;SDS011;18313;48.518;9.124;2022-09-01T08:04:08;16.92;;;14.13;;
31734;SDS011;18313;48.518;9.124;2022-09-01T08:06:35;18.00;;;13.60;;
31734;SDS011;18313;48.518;9.124;2022-09-01T08:09:04;19.20;;;13.93;;
31734;SDS011;18313;48.518;9.124;2022-09-01T08:11:50;18.33;;;14.93;;
31734;SDS011;18313;48.518;9.124;2022-09-01T08:14:27;18.92;;;13.27;;
31734;SDS011;18313;48.518;9.124;2022-09-01T08:16:59;16.60;;;13.13;;
31734;SDS011;18313;48.518;9.124;2022-09-01T08:19:42;16.58;;;12.77;;
31734;SDS011;18313;48.518;9.124;2022-09-01T08:22:09;15.68;;;13.32;;
31734;SDS011;18313;48.518;9.124;2022-09-01T08:24:36;15.18;;;11.65;;
31734;SDS011;18313;48.518;9.124;2022-09-01T08:27:03;14.50;;;11.93;;
31734;SDS011;18313;48.518;9.124;2022-09-01T08:29:30;14.48;;;11.57;;
31734;SDS011;18313;48.518;9.124;2022-09-01T08:31:58;12.75;;;10.60;;
31734;SDS011;18313;48.518;9.124;2022-09-01T08:34:25;15.32;;;11.15;;
31734;SDS011;18313;48.518;9.124;2022-09-01T08:36:52;13.65;;;10.95;;
31734;SDS011;18313;48.518;9.124;2022-09-01T08:39:19;16.08;;;10.55;;
31734;SDS011;18313;48.518;9.124;2022-09-01T08:41:56;13.85;;;10.50;;
31734;SDS011;18313;48.518;9.124;2022-09-01T08:47:27;12.93;;;8.93;;
31734;SDS011;18313;48.518;9.124;2022-09-01T08:50:19;11.70;;;8.90;;
31734;SDS011;18313;48.518;9.124;2022-09-01T08:52:59;13.82;;;9.32;;
31734;SDS011;18313;48.518;9.124;2022-09-01T08:55:38;10.95;;;8.30;;
31734;SDS011;18313;48.518;9.124;2022-09-01T08:58:09;9.63;;;7.80;;
31734;SDS011;18313;48.518;9.124;2022-09-01T09:00:41;9.65;;;7.43;;
31734;SDS011;18313;48.518;9.124;2022-09-01T09:03:31;9.85;;;6.35;;
31734;SDS011;18313;48.518;9.124;2022-09-01T09:06:14;10.93;;;6.65;;
31734;SDS011;18313;48.518;9.124;2022-09-01T09:08:58;10.60;;;7.93;;
31734;SDS011;18313;48.518;9.124;2022-09-01T09:11:37;10.18;;;7.10;;
31734;SDS011;18313;48.518;9.124;2022-09-01T09:17:34;9.45;;;6.97;;
31734;SDS011;18313;48.518;9.124;2022-09-01T09:20:06;12.07;;;6.10;;
31734;SDS011;18313;48.518;9.124;2022-09-01T09:22:34;8.90;;;6.68;;
31734;SDS011;18313;48.518;9.124;2022-09-01T09:25:03;11.55;;;6.80;;
31734;SDS011;18313;48.518;9.124;2022-09-01T09:27:45;8.02;;;5.97;;
31734;SDS011;18313;48.518;9.124;2022-09-01T09:30:27;8.70;;;5.80;;
31734;SDS011;18313;48.518;9.124;2022-09-01T09:35:51;7.25;;;5.10;;
31734;SDS011;18313;48.518;9.124;2022-09-01T09:38:20;9.43;;;4.50;;
31734;SDS011;18313;48.518;9.124;2022-09-01T09:40:55;7.72;;;4.68;;
31734;SDS011;18313;48.518;9.124;2022-09-01T09:43:57;7.45;;;5.00;;
31734;SDS011;18313;48.518;9.124;2022-09-01T09:49:19;5.72;;;3.75;;
31734;SDS011;18313;48.518;9.124;2022-09-01T09:57:26;6.18;;;2.80;;
31734;SDS011;18313;48.518;9.124;2022-09-01T10:03:02;3.28;;;2.40;;
31734;SDS011;18313;48.518;9.124;2022-09-01T10:05:40;3.35;;;2.47;;
31734;SDS011;18313;48.518;9.124;2022-09-01T10:08:10;2.30;;;1.57;;
31734;SDS011;18313;48.518;9.124;2022-09-01T10:10:47;3.70;;;2.25;;
31734;SDS011;18313;48.518;9.124;2022-09-01T10:13:23;4.20;;;2.30;;
31734;SDS011;18313;48.518;9.124;2022-09-01T10:16:06;3.78;;;2.22;;
31734;SDS011;18313;48.518;9.124;2022-09-01T10:18:52;3.45;;;2.40;;
31734;SDS011;18313;48.518;9.124;2022-09-01T10:21:36;4.60;;;2.50;;
31734;SDS011;18313;48.518;9.124;2022-09-01T10:24:10;3.13;;;2.35;;
31734;SDS011;18313;48.518;9.124;2022-09-01T10:26:46;6.32;;;2.60;;
31734;SDS011;18313;48.518;9.124;2022-09-01T10:29:26;4.43;;;2.40;;
31734;SDS011;18313;48.518;9.124;2022-09-01T10:32:23;3.03;;;2.33;;
31734;SDS011;18313;48.518;9.124;2022-09-01T10:35:09;2.95;;;1.90;;
31734;SDS011;18313;48.518;9.124;2022-09-01T10:37:43;4.60;;;2.40;;
31734;SDS011;18313;48.518;9.124;2022-09-01T10:40:13;4.72;;;2.15;;
31734;SDS011;18313;48.518;9.124;2022-09-01T10:43:21;3.30;;;2.10;;
31734;SDS011;18313;48.518;9.124;2022-09-01T10:49:12;3.40;;;1.88;;
31734;SDS011;18313;48.518;9.124;2022-09-01T10:51:50;3.10;;;2.00;;
31734;SDS011;18313;48.518;9.124;2022-09-01T11:00:08;3.38;;;2.30;;
31734;SDS011;18313;48.518;9.124;2022-09-01T11:08:55;3.65;;;2.50;;
31734;SDS011;18313;48.518;9.124;2022-09-01T11:14:16;3.33;;;2.60;;
31734;SDS011;18313;48.518;9.124;2022-09-01T11:19:46;3.25;;;2.42;;
31734;SDS011;18313;48.518;9.124;2022-09-01T11:22:25;4.38;;;2.22;;
31734;SDS011;18313;48.518;9.124;2022-09-01T11:28:34;5.18;;;2.20;;
31734;SDS011;18313;48.518;9.124;2022-09-01T11:31:02;3.93;;;2.37;;
31734;SDS011;18313;48.518;9.124;2022-09-01T11:33:41;4.70;;;2.47;;
31734;SDS011;18313;48.518;9.124;2022-09-01T11:41:51;3.25;;;2.42;;
31734;SDS011;18313;48.518;9.124;2022-09-01T11:44:29;3.70;;;2.30;;
31734;SDS011;18313;48.518;9.124;2022-09-01T11:47:03;4.53;;;2.13;;
31734;SDS011;18313;48.518;9.124;2022-09-01T11:49:44;6.22;;;2.55;;
31734;SDS011;18313;48.518;9.124;2022-09-01T11:52:15;3.45;;;2.22;;
31734;SDS011;18313;48.518;9.124;2022-09-01T11:54:43;3.63;;;2.13;;
31734;SDS011;18313;48.518;9.124;2022-09-01T11:57:15;4.40;;;2.20;;
31734;SDS011;18313;48.518;9.124;2022-09-01T11:59:52;3.38;;;2.20;;
31734;SDS011;18313;48.518;9.124;2022-09-01T12:02:21;4.20;;;2.30;;
31734;SDS011;18313;48.518;9.124;2022-09-01T12:04:53;3.50;;;1.90;;
31734;SDS011;18313;48.518;9.124;2022-09-01T12:07:38;3.42;;;2.13;;
31734;SDS011;18313;48.518;9.124;2022-09-01T12:15:38;5.25;;;2.40;;
31734;SDS011;18313;48.518;9.124;2022-09-01T12:18:29;4.47;;;2.22;;
31734;SDS011;18313;48.518;9.124;2022-09-01T12:20:59;3.42;;;2.20;;
31734;SDS011;18313;48.518;9.124;2022-09-01T12:23:35;3.47;;;2.10;;
31734;SDS011;18313;48.518;9.124;2022-09-01T12:26:06;4.93;;;2.47;;
31734;SDS011;18313;48.518;9.124;2022-09-01T12:28:38;3.08;;;2.10;;
31734;SDS011;18313;48.518;9.124;2022-09-01T12:31:15;3.80;;;2.20;;
31734;SDS011;18313;48.518;9.124;2022-09-01T12:33:44;3.63;;;1.90;;
31734;SDS011;18313;48.518;9.124;2022-09-01T12:38:47;3.53;;;2.00;;
31734;SDS011;18313;48.518;9.124;2022-09-01T12:41:26;3.40;;;2.03;;
31734;SDS011;18313;48.518;9.124;2022-09-01T12:47:10;3.05;;;1.98;;
31734;SDS011;18313;48.518;9.124;2022-09-01T12:49:40;3.28;;;1.90;;
31734;SDS011;18313;48.518;9.124;2022-09-01T12:54:47;3.13;;;2.03;;
31734;SDS011;18313;48.518;9.124;2022-09-01T12:57:28;3.35;;;2.28;;
31734;SDS011;18313;48.518;9.124;2022-09-01T13:02:46;3.58;;;2.05;;
31734;SDS011;18313;48.518;9.124;2022-09-01T13:06:16;3.05;;;2.10;;
31734;SDS011;18313;48.518;9.124;2022-09-01T13:08:21;2.80;;;2.20;;
31734;SDS011;18313;48.518;9.124;2022-09-01T13:11:00;4.95;;;2.00;;
31734;SDS011;18313;48.518;9.124;2022-09-01T13:13:31;5.28;;;2.65;;
31734;SDS011;18313;48.518;9.124;2022-09-01T13:16:00;4.47;;;2.60;;
31734;SDS011;18313;48.518;9.124;2022-09-01T13:18:39;3.55;;;2.45;;
31734;SDS011;18313;48.518;9.124;2022-09-01T13:21:27;3.58;;;2.13;;
31734;SDS011;18313;48.518;9.124;2022-09-01T13:23:55;4.38;;;2.20;;
31734;SDS011;18313;48.518;9.124;2022-09-01T13:26:22;3.20;;;1.88;;
31734;SDS011;18313;48.518;9.124;2022-09-01T13:28:49;3.72;;;2.00;;
31734;SDS011;18313;48.518;9.124;2022-09-01T13:31:16;3.10;;;1.98;;
31734;SDS011;18313;48.518;9.124;2022-09-01T13:34:00;2.97;;;2.13;;
31734;SDS011;18313;48.518;9.124;2022-09-01T13:36:46;6.65;;;3.30;;
31734;SDS011;18313;48.518;9.124;2022-09-01T13:39:18;2.92;;;2.13;;
31734;SDS011;18313;48.518;9.124;2022-09-01T13:41:46;3.20;;;2.10;;
31734;SDS011;18313;48.518;9.124;2022-09-01T13:44:13;3.88;;;2.45;;
31734;SDS011;18313;48.518;9.124;2022-09-01T13:46:43;3.33;;;2.25;;
31734;SDS011;18313;48.518;9.124;2022-09-01T13:49:30;4.20;;;2.33;;
31734;SDS011;18313;48.518;9.124;2022-09-01T13:52:17;2.97;;;2.20;;
31734;SDS011;18313;48.518;9.124;2022-09-01T13:54:44;3.10;;;2.42;;
31734;SDS011;18313;48.518;9.124;2022-09-01T13:57:13;3.00;;;2.10;;
31734;SDS011;18313;48.518;9.124;2022-09-01T13:59:41;4.05;;;2.20;;
31734;SDS011;18313;48.518;9.124;2022-09-01T14:02:08;3.78;;;2.10;;
31734;SDS011;18313;48.518;9.124;2022-09-01T14:04:36;4.32;;;2.20;;
31734;SDS011;18313;48.518;9.124;2022-09-01T14:07:03;3.38;;;2.17;;
31734;SDS011;18313;48.518;9.124;2022-09-01T14:09:30;4.35;;;1.92;;
31734;SDS011;18313;48.518;9.124;2022-09-01T14:11:57;3.13;;;1.90;;
31734;SDS011;18313;48.518;9.124;2022-09-01T14:14:24;4.18;;;2.10;;
31734;SDS011;18313;48.518;9.124;2022-09-01T14:16:51;5.97;;;2.35;;
31734;SDS011;18313;48.518;9.124;2022-09-01T14:19:21;2.65;;;2.13;;
31734;SDS011;18313;48.518;9.124;2022-09-01T14:21:49;6.55;;;2.88;;
31734;SDS011;18313;48.518;9.124;2022-09-01T14:24:16;2.67;;;2.10;;
31734;SDS011;18313;48.518;9.124;2022-09-01T14:26:45;3.05;;;1.98;;
31734;SDS011;18313;48.518;9.124;2022-09-01T14:29:12;2.30;;;1.67;;
31734;SDS011;18313;48.518;9.124;2022-09-01T14:31:39;3.83;;;2.10;;
31734;SDS011;18313;48.518;9.124;2022-09-01T14:34:09;2.85;;;1.65;;
31734;SDS011;18313;48.518;9.124;2022-09-01T14:36:37;3.13;;;1.92;;
31734;SDS011;18313;48.518;9.124;2022-09-01T14:39:04;3.38;;;1.70;;
31734;SDS011;18313;48.518;9.124;2022-09-01T14:41:32;3.28;;;1.75;;
31734;SDS011;18313;48.518;9.124;2022-09-01T14:43:59;3.35;;;2.10;;
31734;SDS011;18313;48.518;9.124;2022-09-01T14:46:29;3.45;;;2.13;;
31734;SDS011;18313;48.518;9.124;2022-09-01T14:49:00;3.53;;;2.00;;
31734;SDS011;18313;48.518;9.124;2022-09-01T14:51:28;3.47;;;2.58;;
31734;SDS011;18313;48.518;9.124;2022-09-01T14:54:16;3.90;;;2.50;;
31734;SDS011;18313;48.518;9.124;2022-09-01T14:56:44;4.53;;;2.60;;
31734;SDS011;18313;48.518;9.124;2022-09-01T14:59:32;3.65;;;2.63;;
31734;SDS011;18313;48.518;9.124;2022-09-01T15:02:00;4.68;;;2.53;;
31734;SDS011;18313;48.518;9.124;2022-09-01T15:04:27;3.28;;;2.38;;
31734;SDS011;18313;48.518;9.124;2022-09-01T15:06:54;3.15;;;2.30;;
31734;SDS011;18313;48.518;9.124;2022-09-01T15:09:21;4.18;;;2.30;;
31734;SDS011;18313;48.518;9.124;2022-09-01T15:11:48;4.43;;;2.08;;
31734;SDS011;18313;48.518;9.124;2022-09-01T15:14:15;3.05;;;2.13;;
31734;SDS011;18313;48.518;9.124;2022-09-01T15:16:42;3.08;;;1.90;;
31734;SDS011;18313;48.518;9.124;2022-09-01T15:19:09;3.05;;;1.73;;
31734;SDS011;18313;48.518;9.124;2022-09-01T15:21:39;3.60;;;2.25;;
31734;SDS011;18313;48.518;9.124;2022-09-01T15:24:08;2.67;;;1.92;;
31734;SDS011;18313;48.518;9.124;2022-09-01T15:26:36;3.33;;;1.92;;
31734;SDS011;18313;48.518;9.124;2022-09-01T15:29:06;4.32;;;2.10;;
31734;SDS011;18313;48.518;9.124;2022-09-01T15:31:35;4.22;;;2.00;;
31734;SDS011;18313;48.518;9.124;2022-09-01T15:34:02;3.13;;;1.90;;
31734;SDS011;18313;48.518;9.124;2022-09-01T15:36:30;3.33;;;2.25;;
31734;SDS011;18313;48.518;9.124;2022-09-01T15:38:59;2.85;;;1.90;;
31734;SDS011;18313;48.518;9.124;2022-09-01T15:41:27;3.55;;;1.90;;
31734;SDS011;18313;48.518;9.124;2022-09-01T15:43:56;3.28;;;1.90;;
31734;SDS011;18313;48.518;9.124;2022-09-01T15:46:24;2.88;;;2.15;;
31734;SDS011;18313;48.518;9.124;2022-09-01T15:48:58;3.28;;;2.20;;
31734;SDS011;18313;48.518;9.124;2022-09-01T15:53:56;4.28;;;1.90;;
31734;SDS011;18313;48.518;9.124;2022-09-01T15:56:26;3.13;;;2.05;;
31734;SDS011;18313;48.518;9.124;2022-09-01T15:58:52;3.80;;;2.00;;
31734;SDS011;18313;48.518;9.124;2022-09-01T16:01:28;4.03;;;2.20;;
31734;SDS011;18313;48.518;9.124;2022-09-01T16:03:58;3.10;;;2.13;;
31734;SDS011;18313;48.518;9.124;2022-09-01T16:06:24;2.88;;;2.10;;
31734;SDS011;18313;48.518;9.124;2022-09-01T16:08:51;2.80;;;2.00;;
31734;SDS011;18313;48.518;9.124;2022-09-01T16:11:23;4.78;;;2.20;;
31734;SDS011;18313;48.518;9.124;2022-09-01T16:13:51;4.05;;;2.13;;
31734;SDS011;18313;48.518;9.124;2022-09-01T16:19:11;4.47;;;2.35;;
31734;SDS011;18313;48.518;9.124;2022-09-01T16:24:51;5.37;;;2.13;;
31734;SDS011;18313;48.518;9.124;2022-09-01T16:27:22;4.82;;;2.20;;
31734;SDS011;18313;48.518;9.124;2022-09-01T16:29:58;2.97;;;2.28;;
31734;SDS011;18313;48.518;9.124;2022-09-01T16:32:29;3.05;;;2.20;;
31734;SDS011;18313;48.518;9.124;2022-09-01T16:34:59;3.85;;;2.28;;
31734;SDS011;18313;48.518;9.124;2022-09-01T16:43:17;4.82;;;2.30;;
31734;SDS011;18313;48.518;9.124;2022-09-01T16:48:42;4.63;;;2.70;;
31734;SDS011;18313;48.518;9.124;2022-09-01T16:56:49;3.75;;;2.30;;
31734;SDS011;18313;48.518;9.124;2022-09-01T17:02:16;3.45;;;2.30;;
31734;SDS011;18313;48.518;9.124;2022-09-01T17:10:40;6.05;;;2.42;;
31734;SDS011;18313;48.518;9.124;2022-09-01T17:13:16;3.50;;;2.20;;
31734;SDS011;18313;48.518;9.124;2022-09-01T17:15:51;4.75;;;2.20;;
31734;SDS011;18313;48.518;9.124;2022-09-01T17:18:41;5.05;;;2.42;;
31734;SDS011;18313;48.518;9.124;2022-09-01T17:23:53;5.22;;;2.72;;
31734;SDS011;18313;48.518;9.124;2022-09-01T17:26:30;4.80;;;3.03;;
31734;SDS011;18313;48.518;9.124;2022-09-01T17:37:41;3.53;;;2.70;;
31734;SDS011;18313;48.518;9.124;2022-09-01T17:45:52;2.83;;;2.37;;
31734;SDS011;18313;48.518;9.124;2022-09-01T17:48:39;3.55;;;2.67;;
31734;SDS011;18313;48.518;9.124;2022-09-01T17:59:15;3.58;;;2.50;;
31734;SDS011;18313;48.518;9.124;2022-09-01T18:01:58;3.53;;;2.60;;
31734;SDS011;18313;48.518;9.124;2022-09-01T18:04:55;5.90;;;2.70;;
31734;SDS011;18313;48.518;9.124;2022-09-01T18:10:27;5.47;;;2.90;;
31734;SDS011;18313;48.518;9.124;2022-09-01T18:16:14;4.07;;;2.90;;
31734;SDS011;18313;48.518;9.124;2022-09-01T18:18:45;4.13;;;2.83;;
31734;SDS011;18313;48.518;9.124;2022-09-01T18:21:18;4.22;;;3.03;;
31734;SDS011;18313;48.518;9.124;2022-09-01T18:23:51;3.75;;;2.97;;
31734;SDS011;18313;48.518;9.124;2022-09-01T18:26:25;4.23;;;2.47;;
31734;SDS011;18313;48.518;9.124;2022-09-01T18:42:48;4.63;;;3.35;;
31734;SDS011;18313;48.518;9.124;2022-09-01T18:54:10;4.32;;;2.80;;
31734;SDS011;18313;48.518;9.124;2022-09-01T18:56:41;4.80;;;3.20;;
31734;SDS011;18313;48.518;9.124;2022-09-01T19:05:08;5.43;;;2.83;;
31734;SDS011;18313;48.518;9.124;2022-09-01T19:11:02;4.47;;;2.72;;
31734;SDS011;18313;48.518;9.124;2022-09-01T19:13:39;4.35;;;2.85;;
31734;SDS011;18313;48.518;9.124;2022-09-01T19:22:06;3.65;;;2.92;;